Date,TemperatureHighF,TemperatureAvgF,TemperatureLowF,DewpointHighF,DewpointAvgF,DewpointLowF,HumidityHigh,HumidityAvg,HumidityLow,PressureMaxIn,PressureMinIn,WindSpeedMaxMPH,WindSpeedAvgMPH,GustSpeedMaxMPH,PrecipitationSumIn
2013-1-1,24.8,20.4,16.6,17.5,12.1,9.1,81,70,60,30.19,30.05,5,2,13,0.00
2013-1-2,24.2,20.7,16.3,19.7,15.4,10.6,84,80,77,30.21,30.11,5,2,11,0.00
2013-1-3,27.5,22.5,16.4,23.7,17.5,9.8,86,81,74,30.18,30.07,6,3,12,0.00
2013-1-4,32.9,27.5,22.6,23.8,21.1,18.1,84,77,66,30.20,30.00,9,5,21,0.00
2013-1-5,34.0,25.7,17.1,29.4,21.8,14.9,94,85,72,30.30,30.02,4,2,9,0.00
2013-1-6,34.1,32.3,30.0,31.3,28.6,25.2,94,86,79,30.28,29.90,5,3,12,0.05
2013-1-7,35.9,30.1,26.6,25.7,23.1,20.7,85,75,59,30.36,30.14,7,3,17,0.00
2013-1-8,36.6,29.6,24.4,27.0,23.4,20.2,84,78,67,30.25,30.15,4,2,9,0.00
2013-1-9,35.3,32.4,31.3,28.8,26.6,25.8,81,79,77,30.15,30.05,5,3,12,0.00
2013-1-14,25.6,20.3,15.9,22.0,15.5,13.1,90,81,72,30.46,30.06,6,3,15,0.00
2013-1-15,26.9,18.6,11.1,17.7,14.2,9.0,92,83,67,30.48,30.21,2,0,6,0.00
2013-1-16,33.0,24.9,14.3,27.8,17.9,12.3,94,76,52,30.20,29.82,7,3,17,0.00
2013-1-17,32.3,25.8,15.6,27.7,18.5,5.8,85,74,59,30.34,29.97,7,3,16,0.00
2013-1-18,35.3,22.8,9.6,22.4,14.5,6.6,89,71,51,30.45,29.95,7,3,20,0.00
2013-1-19,44.3,39.4,35.3,33.9,29.4,22.8,73,67,60,29.94,29.60,7,5,21,0.01
2013-1-20,11.5,11.2,11.0,3.2,3.0,2.8,70,69,68,30.19,30.18,1,1,3,0.00
2013-1-21,13.3,9.6,2.1,9.8,2.1,-5.7,86,71,58,30.17,30.00,7,4,17,0.00
2013-1-22,6.6,2.0,-3.1,-0.1,-6.4,-11.4,78,68,53,30.34,30.16,7,4,15,0.00
2013-1-23,15.6,7.8,-1.0,11.0,2.8,-5.2,89,80,66,30.34,30.13,4,2,11,0.00
2013-1-24,12.7,7.1,1.5,10.1,1.2,-2.4,89,77,53,30.66,30.19,2,0,5,0.00
2013-1-25,21.2,15.3,8.7,14.4,10.4,2.1,89,81,71,30.56,30.05,4,1,8,0.00
2013-1-26,25.2,19.3,12.8,16.0,14.1,9.4,89,80,65,30.48,30.08,4,2,9,0.00
2013-1-27,27.8,20.9,12.1,25.4,15.0,9.3,92,79,58,30.50,30.15,5,2,11,0.00
2013-1-28,42.4,35.9,28.0,41.4,34.5,25.7,97,95,91,30.16,29.86,5,3,11,0.33
2013-1-29,56.8,44.7,31.1,53.6,43.3,29.8,97,95,89,30.03,29.45,6,3,18,0.97
2013-1-30,56.6,44.7,29.9,53.7,43.0,26.2,100,94,84,29.42,29.09,9,3,20,0.85
2013-1-31,28.4,19.7,14.4,23.6,14.1,9.4,89,79,66,29.90,29.25,11,7,23,0.00
2013-2-1,16.7,13.1,8.3,10.9,6.9,1.2,88,76,62,30.28,29.91,7,4,15,0.00
2013-2-2,19.2,12.9,3.0,14.9,8.4,0.3,88,82,74,30.22,30.02,5,2,12,0.00
2013-2-3,18.6,9.8,-1.5,13.5,5.1,-4.4,89,81,69,30.06,29.90,7,2,13,0.00
2013-2-4,21.1,15.8,9.1,14.8,11.1,4.5,87,81,74,30.07,29.93,2,0,6,0.00
2013-2-5,26.2,17.6,4.6,24.5,13.7,2.1,93,85,67,30.01,29.83,4,2,12,0.00
2013-2-6,29.1,21.4,9.5,19.0,14.4,6.9,91,75,60,30.31,30.02,3,1,8,0.00
2013-2-7,36.3,29.3,24.2,26.7,21.7,16.0,93,73,65,30.30,29.93,6,2,13,0.01
2013-2-8,27.0,23.0,13.0,25.8,20.1,10.1,95,89,71,30.39,29.86,5,2,10,0.00
2013-2-9,31.1,16.0,-2.1,18.7,9.9,-5.3,92,78,51,30.50,30.31,4,1,9,0.00
2013-2-10,39.0,29.4,16.9,35.9,23.3,14.5,92,79,57,30.31,29.68,6,3,15,0.35
2013-2-11,43.0,36.4,30.8,40.8,30.7,25.4,94,80,68,29.84,29.53,11,7,23,0.04
2013-2-12,30.6,28.4,26.0,25.2,22.4,20.6,82,78,71,30.05,29.85,7,4,16,0.00
2013-2-13,37.0,28.8,25.2,26.8,23.1,20.7,87,79,65,29.95,29.75,4,2,10,0.00
2013-2-14,39.4,33.3,28.2,33.1,29.3,24.7,91,85,77,29.85,29.66,9,4,20,0.00
2013-2-15,30.2,24.3,18.9,24.5,16.0,12.3,83,71,58,30.15,29.86,7,4,13,0.00
2013-2-16,22.8,18.4,15.1,17.1,12.4,6.4,90,78,55,30.13,30.02,5,1,11,0.00
2013-2-17,21.5,14.0,7.2,11.0,5.8,2.4,86,70,49,30.24,30.11,4,1,11,0.00
2013-2-18,45.3,29.8,12.9,36.1,19.4,6.5,75,65,54,30.24,29.58,7,4,16,0.00
2013-2-19,45.6,27.7,16.5,38.9,22.7,10.3,91,81,69,29.92,29.38,11,8,26,0.13
2013-2-20,21.3,18.0,14.1,14.0,10.7,7.5,81,73,64,30.29,29.93,8,6,19,0.00
2013-2-21,22.3,18.7,16.4,17.0,12.5,10.0,89,77,65,30.43,30.28,6,2,12,0.00
2013-2-22,32.0,25.7,19.9,30.1,22.9,16.7,95,89,81,30.31,29.90,6,3,13,0.00
2013-2-23,32.3,28.4,23.6,29.9,22.9,18.9,91,80,68,29.93,29.88,6,4,12,0.00
2013-2-24,35.6,26.9,20.7,26.6,22.3,18.7,92,83,65,30.18,29.91,5,2,10,0.00
2013-2-25,39.5,30.1,20.5,26.3,22.7,17.9,91,75,54,30.26,30.13,3,0,7,0.01
2013-2-26,34.5,29.8,25.0,30.5,25.4,20.8,96,84,71,30.16,29.56,9,5,20,0.16
2013-2-27,34.9,32.7,31.4,33.7,31.4,30.4,96,95,91,29.58,29.49,3,1,9,0.28
2013-2-28,33.9,31.1,27.4,31.1,28.4,22.9,97,90,81,30.01,29.57,3,1,10,0.10
2013-3-1,27.1,24.4,22.4,23.3,19.7,17.7,86,82,77,30.16,30.01,2,1,11,0.00
2013-3-2,23.5,22.0,18.0,18.6,17.4,15.3,89,82,78,30.14,30.10,3,1,6,0.00
2013-3-3,20.8,17.1,11.3,16.4,12.3,8.9,90,81,75,30.10,30.07,3,2,8,0.00
2013-3-4,28.5,19.4,10.4,16.7,13.0,7.8,89,77,55,30.20,30.09,3,1,8,0.00
2013-3-5,34.2,24.5,15.1,24.5,19.2,11.9,89,80,65,30.18,29.90,6,2,16,0.00
2013-3-6,35.2,29.8,24.1,28.5,25.5,21.6,93,84,72,30.24,29.94,3,1,9,0.03
2013-3-7,33.1,29.3,21.5,28.5,24.2,17.7,94,81,62,30.43,30.23,4,1,8,0.01
2013-3-8,40.6,28.6,16.6,27.4,21.7,14.2,92,76,57,30.54,30.43,3,1,7,0.00
2013-3-9,44.4,34.5,24.2,31.9,26.9,22.0,92,75,57,30.44,30.04,5,2,10,0.00
2013-3-10,57.5,49.1,38.1,43.3,37.6,31.4,80,65,53,30.03,29.78,5,2,15,0.00
2013-3-11,55.4,48.3,35.8,47.4,42.6,32.2,95,82,53,29.79,29.45,7,4,18,0.32
2013-3-12,36.6,32.6,28.7,32.2,27.4,23.2,90,81,66,29.91,29.65,7,4,17,0.00
2013-3-13,31.3,26.8,21.6,26.1,18.8,13.8,92,72,51,30.22,29.88,8,5,19,0.00
2013-3-14,37.8,28.6,20.6,21.3,17.6,13.9,81,64,47,30.28,30.09,5,3,10,0.00
2013-3-15,37.7,33.3,28.9,31.8,28.2,17.1,95,82,58,30.09,29.87,6,3,13,0.01
2013-3-16,32.1,27.1,23.6,30.8,23.7,21.2,95,87,76,30.05,29.82,5,1,12,0.01
2013-3-17,29.8,23.5,17.4,22.5,14.0,9.0,88,68,47,30.32,30.05,5,2,11,0.00
2013-3-18,32.9,26.7,17.7,31.0,22.3,11.6,95,83,73,30.24,29.59,7,3,15,0.00
2013-3-19,33.1,24.4,20.7,29.7,18.8,14.0,90,79,68,29.94,29.61,11,6,21,0.00
2013-3-20,25.1,21.6,14.9,15.3,13.0,9.6,79,69,60,29.97,29.92,7,5,17,0.00
2013-3-21,28.9,22.9,14.3,23.8,17.6,9.5,88,80,70,29.97,29.88,7,4,14,0.00
2013-3-22,35.5,27.9,23.3,23.9,19.6,16.1,82,71,60,30.05,29.96,5,3,11,0.01
2013-3-23,33.7,29.5,24.0,24.0,22.5,20.1,85,75,65,30.14,30.05,3,1,7,0.01
2013-3-24,36.5,27.9,20.4,27.0,22.2,18.4,93,80,55,30.10,29.72,7,2,15,0.00
2013-3-25,37.3,32.8,29.1,29.2,25.7,23.1,79,75,66,29.95,29.65,5,2,12,0.00
2013-3-26,41.8,34.8,30.6,32.0,28.8,26.2,87,79,62,30.13,29.94,5,2,11,0.00
2013-3-27,44.1,36.0,28.8,29.9,26.2,24.3,84,69,50,30.22,30.12,8,4,15,0.00
2013-3-28,49.6,38.2,29.0,28.1,25.3,23.5,82,62,37,30.29,30.22,5,3,12,0.00
2013-3-29,50.1,38.5,27.3,24.8,22.9,20.6,76,56,32,30.30,30.22,4,2,9,0.00
2013-3-30,53.7,41.3,25.5,29.4,22.4,16.1,83,51,23,30.23,29.92,7,2,15,0.00
2013-3-31,54.9,45.1,38.8,40.8,34.8,28.0,89,68,47,29.94,29.61,9,4,19,0.02
2013-4-1,40.0,29.2,24.4,31.4,16.4,11.0,90,60,39,30.12,29.69,8,5,16,0.00
2013-4-2,38.6,28.9,20.2,17.7,14.4,11.5,84,57,34,30.28,30.11,8,4,19,0.00
2013-4-3,39.6,29.8,19.9,16.7,14.0,9.7,75,54,34,30.46,30.27,4,1,12,0.00
2013-4-4,54.8,40.7,26.9,22.7,17.2,13.9,63,41,22,30.38,29.95,6,3,13,0.00
2013-4-5,46.2,39.0,31.5,30.5,21.5,15.3,89,52,30,30.22,29.96,4,1,8,0.00
2013-4-6,49.8,38.4,28.4,23.9,21.0,15.4,76,52,34,30.25,29.75,7,4,18,0.00
2013-4-7,55.8,46.0,32.7,46.2,34.9,23.4,85,67,34,30.04,29.58,10,5,20,0.00
2013-4-8,58.8,41.3,30.0,51.6,37.5,27.4,95,87,65,30.05,29.70,10,3,26,0.36
2013-4-9,48.4,42.4,38.9,43.8,40.5,37.5,96,93,79,30.10,29.90,4,2,12,1.04
2013-4-10,41.0,38.0,35.9,38.7,36.6,32.4,96,95,87,30.04,29.90,6,2,13,0.92
2013-4-11,36.5,34.7,33.5,33.8,32.9,32.0,95,93,87,30.04,29.69,9,6,19,0.65
2013-4-12,41.8,36.1,32.1,37.3,33.7,31.1,96,91,78,29.76,29.56,6,2,13,0.33
2013-4-13,39.7,36.6,32.7,36.8,30.1,24.6,95,78,58,29.99,29.75,9,5,20,0.06
2013-4-14,47.1,38.0,28.2,36.1,30.7,26.0,92,75,61,30.12,29.94,4,2,11,0.01
2013-4-15,67.3,55.1,40.1,54.4,45.1,33.3,89,70,56,29.96,29.84,7,3,16,0.01
2013-4-16,58.5,51.5,43.2,54.4,41.4,36.9,94,71,48,30.11,29.86,7,4,13,0.14
2013-4-17,56.6,56.6,56.6,37.1,37.1,37.1,48,48,48,30.11,30.11,4,4,9,0.14
2013-4-18,56.6,56.6,56.6,37.1,37.1,37.1,48,48,48,30.11,30.11,4,4,9,0.14
2013-4-19,56.6,56.6,56.6,37.1,37.1,37.1,48,48,48,30.11,30.11,4,4,9,0.14
2013-4-20,56.6,56.6,56.6,37.1,37.1,37.1,48,48,48,30.11,30.11,4,4,9,0.14
2013-5-7,76.3,63.6,49.5,52.8,46.4,38.2,74,55,35,30.06,29.97,3,1,10,0.00
2013-5-8,82.8,66.9,50.4,51.4,47.1,41.9,85,54,25,30.02,29.91,2,0,6,0.00
2013-5-9,80.5,67.8,54.5,53.6,50.1,44.0,86,57,28,29.95,29.86,2,1,6,0.00
2013-5-10,69.5,51.0,40.5,57.3,47.2,38.8,95,88,50,29.90,29.75,2,1,8,0.50
2013-5-11,61.6,45.8,38.0,47.2,40.5,32.7,95,83,53,29.90,29.71,7,2,17,0.05
2013-5-12,45.0,38.9,32.9,33.6,29.5,24.0,87,70,54,30.10,29.86,7,4,17,0.00
2013-5-13,52.6,41.1,29.5,31.6,25.8,22.3,82,57,31,30.19,30.10,4,1,11,1.89
2013-5-14,74.7,56.3,42.4,52.5,38.9,29.2,76,53,37,30.11,29.70,3,1,9,0.00
2013-5-15,78.4,67.9,53.7,57.1,49.1,42.8,82,54,31,29.78,29.54,6,3,15,0.00
2013-5-16,82.8,65.5,51.8,47.6,43.5,38.1,77,48,24,30.04,29.77,2,1,7,0.00
2013-5-17,67.5,57.2,45.0,46.2,41.9,38.1,79,58,42,30.15,30.02,2,1,6,0.00
2013-5-18,81.0,65.4,52.8,49.5,45.5,41.4,74,51,27,30.16,30.02,2,1,7,0.00
2013-5-19,87.0,71.0,52.9,61.9,53.7,44.6,82,57,36,30.03,29.85,2,0,5,0.00
2013-5-20,89.5,73.5,64.0,68.6,63.4,60.3,96,74,43,29.90,29.72,5,1,20,0.13
2013-5-21,81.4,72.2,64.6,65.5,62.2,59.2,96,73,49,29.79,29.68,4,1,12,0.00
2013-5-22,76.2,67.4,61.7,65.2,62.3,59.7,95,84,58,29.71,29.58,3,1,10,0.09
2013-5-23,62.0,50.2,41.5,59.8,48.6,40.2,96,94,92,30.16,29.65,2,1,8,0.52
2013-5-24,53.1,43.9,36.3,41.6,37.5,33.9,97,79,55,30.39,30.15,2,0,6,0.00
2013-5-25,63.3,49.7,34.5,41.0,36.9,31.8,96,66,35,30.43,30.30,2,0,5,0.00
2013-5-26,68.1,53.2,36.6,42.2,36.9,33.6,95,60,30,30.37,30.24,2,0,6,0.00
2013-5-27,68.9,53.4,41.6,48.6,40.6,29.0,93,65,33,30.26,30.01,2,1,7,0.00
2013-5-28,71.4,59.6,50.8,68.6,58.3,48.1,97,96,90,30.02,29.77,2,0,7,2.12
2013-5-29,78.8,71.2,61.4,67.6,64.8,60.5,100,81,65,29.96,29.74,4,1,15,0.79
2013-5-30,86.9,74.1,63.8,72.5,66.2,61.0,94,78,55,30.01,29.91,4,1,11,0.05
2013-5-31,78.4,72.8,68.3,68.2,65.0,48.9,90,78,44,29.95,29.81,4,1,11,0.07
2013-6-1,78.1,69.9,63.3,66.0,63.5,61.0,96,81,62,29.83,29.65,4,1,9,0.10
2013-6-2,67.0,60.6,49.5,62.3,53.8,41.2,88,78,71,30.00,29.61,5,2,9,0.00
2013-6-3,65.6,52.8,39.0,47.1,41.0,37.3,94,67,41,30.09,29.98,3,1,9,0.00
2013-6-4,71.9,58.4,44.3,47.0,43.8,39.3,94,62,38,30.20,30.08,1,0,7,0.00
2013-6-5,73.8,59.9,51.3,50.9,43.5,37.5,83,56,31,30.19,30.00,2,0,7,0.03
2013-6-6,69.0,59.0,52.4,54.3,49.5,46.6,89,72,54,30.03,29.87,2,1,6,0.04
2013-6-7,63.2,54.9,47.8,53.1,49.7,46.4,95,83,66,29.93,29.88,1,0,6,0.00
2013-6-8,71.2,60.8,50.0,54.3,51.9,48.3,95,74,50,30.06,29.91,1,0,4,0.00
2013-6-9,77.0,66.1,54.7,59.0,54.4,52.1,91,68,51,30.10,29.93,3,1,11,0.00
2013-6-10,73.1,65.0,58.5,66.6,61.1,51.0,97,88,57,29.95,29.72,2,0,6,0.84
2013-6-11,78.5,68.9,61.1,66.8,63.3,60.1,97,83,62,29.88,29.77,3,1,6,0.01
2013-6-12,75.6,67.4,59.7,67.2,63.6,58.5,97,88,70,29.91,29.64,2,0,5,0.08
2013-6-13,78.5,68.0,60.2,65.0,59.8,55.5,97,77,49,29.92,29.59,2,1,8,1.25
2013-6-14,76.2,64.8,55.7,58.9,52.8,47.2,93,68,37,30.08,29.91,2,0,5,0.00
2013-6-15,76.2,66.1,56.5,63.0,57.4,48.9,88,74,56,30.06,29.88,3,0,7,0.00
2013-6-16,79.6,69.6,62.7,65.5,61.0,53.7,96,76,46,29.89,29.73,4,2,8,0.30
2013-6-17,84.9,68.7,57.9,61.5,58.3,55.4,94,72,42,29.94,29.80,2,1,8,0.05
2013-6-18,72.4,61.2,51.0,58.2,48.7,41.3,96,67,35,30.08,29.90,2,1,8,0.02
2013-6-19,76.7,60.8,43.2,53.6,45.1,40.2,91,60,31,30.18,30.08,2,0,6,0.00
2013-6-20,82.7,67.3,52.6,56.8,52.2,48.2,92,63,32,30.20,30.12,2,0,4,0.00
2013-6-21,85.1,71.3,57.3,66.0,59.1,52.6,85,67,49,30.19,30.01,2,0,4,0.00
2013-6-22,89.4,77.0,65.4,71.3,65.9,57.3,91,70,46,30.05,29.93,3,1,7,0.01
2013-6-23,89.8,78.8,68.9,70.2,67.5,64.2,96,71,44,30.01,29.92,3,1,7,0.00
2013-6-24,87.8,76.4,67.7,70.4,67.5,64.5,95,75,53,30.01,29.88,4,1,10,0.21
2013-6-25,78.4,70.6,65.8,70.9,67.0,63.7,97,89,72,29.93,29.80,3,1,7,0.37
2013-6-26,85.2,74.2,64.2,71.0,67.5,63.0,97,81,60,29.84,29.72,2,0,6,0.00
2013-6-27,86.4,71.6,64.7,72.4,66.8,63.5,96,86,59,29.74,29.61,2,0,9,0.30
2013-6-28,76.8,66.9,63.3,66.5,63.8,61.6,100,90,65,29.64,29.51,3,0,6,0.10
2013-6-29,76.2,67.4,61.4,62.7,60.2,57.2,97,79,58,29.73,29.53,2,0,8,0.00
2013-6-30,81.4,67.5,57.1,63.3,57.1,45.0,91,71,48,29.96,29.72,2,0,9,0.00
2013-7-1,70.0,61.0,53.1,58.2,51.6,45.0,89,72,52,30.09,29.96,2,0,7,0.03
2013-7-2,76.8,65.2,55.4,60.7,56.6,50.7,91,75,56,30.08,30.02,2,0,7,0.00
2013-7-3,83.8,71.0,58.1,68.0,62.6,55.8,94,76,54,30.08,30.01,2,0,6,0.00
2013-7-4,80.9,71.4,64.5,65.5,61.8,57.2,95,74,47,30.10,30.04,2,1,6,0.00
2013-7-5,85.5,74.3,64.4,65.8,62.4,59.3,89,68,46,30.09,30.01,1,0,4,0.00
2013-7-6,87.9,75.0,66.4,70.4,67.0,64.6,94,78,50,30.08,29.95,1,0,5,0.00
2013-7-7,81.4,72.9,68.3,72.1,68.5,66.4,96,86,66,30.00,29.92,1,0,4,0.34
2013-7-8,81.8,73.4,68.4,74.3,68.9,65.7,94,86,76,29.99,29.93,3,0,8,0.02
2013-7-9,88.7,75.1,67.7,73.2,69.3,66.2,96,84,57,29.96,29.83,4,0,9,0.12
2013-7-10,86.5,76.4,64.3,73.3,67.6,56.6,97,76,52,29.92,29.72,4,2,10,0.01
2013-7-11,78.9,66.5,56.5,59.2,56.4,54.3,94,72,45,30.07,29.92,2,0,6,0.00
2013-7-12,83.6,66.0,52.4,61.7,57.0,51.3,97,75,45,30.16,30.07,1,0,6,0.00
2013-7-13,87.4,72.3,57.6,64.2,58.5,51.2,95,66,31,30.19,30.13,2,0,8,0.00
2013-7-14,91.4,76.9,62.9,71.2,66.4,61.3,95,73,46,30.24,30.19,1,0,6,0.00
2013-7-15,93.0,78.1,68.7,76.2,71.6,67.2,96,82,53,30.27,30.19,1,0,4,0.48
2013-7-16,92.7,81.1,72.5,76.8,73.5,71.4,100,80,56,30.28,30.19,2,0,5,0.00
2013-7-17,93.5,82.7,71.6,78.1,73.0,69.7,94,74,53,30.24,30.10,2,1,5,0.00
2013-7-18,94.7,82.6,72.4,75.4,73.0,69.9,93,74,52,30.13,29.90,3,1,6,0.00
2013-7-19,91.9,83.5,75.1,74.4,71.4,64.7,90,69,47,29.92,29.66,7,3,15,0.00
2013-7-20,86.0,76.6,67.0,70.4,63.3,55.9,88,66,36,29.91,29.66,3,1,6,0.00
2013-7-21,83.8,70.5,57.5,61.8,57.3,53.0,86,65,43,30.00,29.89,1,0,5,0.00
2013-7-22,82.3,72.6,64.2,68.2,63.7,59.2,91,75,57,29.95,29.73,1,0,5,0.01
2013-7-23,79.1,68.9,59.7,72.0,63.1,49.5,96,83,60,29.88,29.63,2,1,7,0.44
2013-7-24,72.2,61.6,49.7,52.6,49.8,46.0,88,67,45,30.05,29.86,2,1,6,0.00
2013-7-25,78.4,63.6,49.2,55.5,51.3,47.8,97,69,38,30.11,30.04,1,0,5,0.00
2013-7-26,81.2,67.9,58.1,62.1,57.8,54.0,92,72,47,30.09,29.89,2,0,5,0.05
2013-7-27,79.4,65.0,55.4,64.4,60.1,47.9,95,85,58,29.90,29.70,4,1,9,0.21
2013-7-28,64.5,55.9,48.8,56.1,51.2,46.4,94,85,65,29.96,29.81,3,1,10,0.15
2013-7-29,68.1,60.1,54.1,57.5,54.6,52.4,94,83,64,30.17,29.94,3,1,6,0.04
2013-7-30,79.0,65.1,50.7,59.1,55.6,49.6,97,74,46,30.23,30.10,1,0,6,0.00
2013-7-31,65.5,63.7,61.3,64.2,62.0,58.5,97,94,88,30.12,29.88,1,0,4,0.56
2013-8-1,76.5,66.0,60.1,63.7,60.6,54.9,97,84,53,29.90,29.86,2,1,5,0.11
2013-8-2,74.1,63.6,55.1,63.6,58.2,53.1,93,83,62,29.91,29.81,3,1,7,0.01
2013-8-3,76.6,66.4,56.0,62.2,56.2,52.4,96,72,45,30.05,29.88,3,1,5,0.00
2013-8-4,73.7,62.2,53.1,56.2,53.2,50.3,91,74,49,30.16,30.04,2,1,5,0.00
2013-8-5,70.2,61.1,53.4,58.3,53.6,50.3,92,77,54,30.11,29.95,2,0,3,0.00
2013-8-6,76.3,67.6,61.4,68.6,63.1,56.6,95,86,72,29.96,29.86,1,0,3,0.09
2013-8-7,81.7,71.4,61.7,71.2,66.2,60.3,97,85,62,29.90,29.78,5,1,9,0.44
2013-8-8,76.7,67.5,60.0,66.0,58.8,54.2,94,76,48,30.01,29.89,1,0,6,0.00
2013-8-9,79.5,67.7,54.5,60.7,56.6,51.8,97,71,43,29.99,29.92,3,1,7,0.00
2013-8-10,77.3,66.2,55.1,59.7,55.8,53.1,95,71,46,30.13,29.98,1,0,5,0.00
2013-8-11,76.4,67.2,61.0,61.2,58.0,55.5,88,74,50,30.11,30.02,2,0,6,0.00
2013-8-12,69.7,64.8,60.6,66.3,62.1,57.1,97,91,84,30.05,29.83,2,0,6,0.05
2013-8-13,66.9,59.6,52.5,63.0,50.1,43.7,97,72,46,30.06,29.84,4,1,10,0.00
2013-8-14,69.2,56.9,46.2,53.3,48.2,43.8,92,74,49,30.17,30.05,2,1,4,0.00
2013-8-15,72.7,60.3,48.2,56.7,51.4,46.6,94,75,46,30.17,30.07,2,0,6,0.00
2013-8-16,79.3,64.4,50.2,56.7,53.0,48.5,95,70,40,30.19,30.10,2,0,4,0.00
2013-8-17,82.1,66.3,51.9,60.0,53.6,45.4,96,69,29,30.26,30.17,2,0,6,0.00
2013-8-18,82.4,67.3,52.9,62.0,56.4,51.5,96,72,42,30.22,30.09,2,0,4,0.00
2013-8-19,82.1,68.5,56.4,62.1,57.8,52.9,95,72,38,30.11,30.01,2,0,6,0.00
2013-8-20,85.3,71.4,59.2,65.7,61.6,56.8,92,74,47,30.11,30.04,3,1,8,0.00
2013-8-21,86.6,74.6,64.9,69.0,65.0,62.2,91,74,51,30.09,29.95,3,1,7,0.00
2013-8-22,81.4,73.5,66.3,67.5,65.8,63.3,95,78,55,30.04,29.88,4,1,7,0.10
2013-8-23,81.4,67.4,55.1,62.0,57.0,53.7,96,72,43,30.20,30.01,2,0,6,0.00
2013-8-24,82.8,67.3,52.7,59.8,55.7,51.6,97,70,39,30.31,30.19,2,0,5,0.00
2013-8-25,85.8,72.2,59.1,67.0,61.6,57.0,95,72,48,30.27,30.11,3,1,9,0.00
2013-8-26,85.5,75.5,66.9,71.1,66.3,61.6,87,74,59,30.12,29.94,3,1,7,0.00
2013-8-27,80.9,73.9,69.0,74.6,70.9,67.5,97,90,79,29.97,29.79,5,0,8,1.23
2013-8-28,80.5,73.0,65.9,72.8,69.9,64.7,97,90,71,30.00,29.77,2,0,5,0.00
2013-8-29,86.9,72.2,62.0,70.1,66.3,61.1,100,84,54,30.07,29.97,1,0,3,0.01
2013-8-30,85.1,75.5,67.0,72.3,68.7,63.7,96,81,58,29.98,29.70,4,1,9,0.04
2013-8-31,78.4,71.1,64.6,71.4,65.7,62.5,96,84,66,29.83,29.74,1,0,5,0.00
2013-9-1,76.1,67.8,61.5,70.4,65.3,60.4,97,92,81,29.84,29.70,1,0,7,0.13
2013-9-2,70.6,64.9,56.6,67.9,59.4,52.1,97,83,65,29.92,29.71,4,1,7,0.00
2013-9-3,72.2,62.1,56.3,55.9,52.9,51.1,85,73,48,30.00,29.91,3,1,8,0.00
2013-9-4,78.6,65.9,53.4,64.0,58.0,51.8,95,78,53,30.07,29.97,4,2,9,0.00
2013-9-5,69.6,57.9,47.8,60.2,47.8,42.5,92,71,42,30.25,30.07,1,1,5,0.00
2013-9-6,74.2,59.1,45.8,56.0,49.8,44.4,96,74,43,30.28,30.06,2,0,5,0.00
2013-9-7,75.5,66.6,58.2,69.2,60.6,50.1,94,81,68,30.06,29.87,2,1,5,0.08
2013-9-8,73.7,66.4,54.4,66.5,56.7,48.7,95,73,46,30.09,29.91,3,1,9,0.00
2013-9-9,75.7,63.8,50.3,69.6,59.9,48.0,93,87,75,30.06,29.86,1,0,5,0.04
2013-9-10,92.9,80.0,70.1,71.3,68.4,63.1,91,70,41,29.96,29.84,4,2,10,0.00
2013-9-11,88.0,77.1,69.4,71.0,67.2,64.2,86,72,51,29.98,29.90,3,1,7,0.00
2013-9-12,76.1,65.6,54.9,64.5,57.8,44.4,96,78,46,29.96,29.83,3,1,9,0.14
2013-9-13,56.0,51.2,42.3,45.7,43.0,37.5,88,74,52,30.15,29.95,2,1,8,0.00
2013-9-14,66.3,51.8,39.1,46.2,41.0,37.2,94,70,37,30.20,30.09,2,1,5,0.00
2013-9-15,60.2,53.6,49.2,53.8,48.3,43.5,96,83,65,30.13,30.06,1,0,3,0.11
2013-9-16,60.3,52.7,42.5,52.8,47.2,39.5,96,83,57,30.40,30.12,2,1,6,0.03
2013-9-17,66.1,49.8,34.7,50.8,43.1,33.7,97,80,54,30.43,30.23,2,0,8,0.00
2013-9-18,75.4,58.8,43.6,56.3,50.0,41.5,97,76,48,30.24,30.02,2,0,5,0.00
2013-9-19,79.1,68.1,58.7,67.9,62.2,55.3,93,82,67,30.03,29.86,2,0,6,0.00
2013-9-20,75.9,70.1,65.5,70.2,66.3,64.0,95,88,75,29.88,29.70,4,1,9,0.02
2013-9-21,66.0,60.0,52.5,64.1,52.8,42.7,96,78,51,29.87,29.66,4,2,8,0.00
2013-9-22,57.1,50.4,43.6,44.2,41.1,39.1,89,71,53,30.10,29.87,1,0,7,0.00
2013-9-23,58.0,47.7,37.2,44.4,41.3,36.0,97,80,58,30.21,30.09,2,0,7,0.00
2013-9-24,66.5,52.1,39.5,49.1,44.3,38.2,96,77,49,30.17,30.01,2,0,6,0.00
2013-9-25,70.4,54.2,40.4,53.0,46.3,39.4,97,78,40,30.03,29.96,2,0,6,0.00
2013-9-26,74.8,56.1,41.7,54.5,47.4,40.6,97,77,38,30.14,30.01,1,0,5,0.00
2013-9-27,75.7,58.9,43.8,54.7,49.8,42.5,97,75,42,30.23,30.14,2,0,7,0.00
2013-9-28,75.9,62.3,50.0,60.2,53.8,48.9,100,77,48,30.19,29.99,2,0,6,0.00
2013-9-29,62.4,59.3,54.2,59.3,55.8,53.1,97,88,74,29.99,29.92,1,0,4,0.20
2013-9-30,68.3,58.1,52.8,54.7,52.1,49.8,100,82,53,30.01,29.91,3,0,5,0.01
2013-10-1,72.7,61.0,51.4,62.2,56.5,49.9,97,86,67,29.99,29.89,4,1,11,0.00
2013-10-2,75.1,63.7,53.9,59.5,49.4,37.4,96,66,26,30.08,29.91,2,1,4,0.00
2013-10-3,79.6,65.1,50.6,66.1,57.7,44.9,92,78,61,30.06,29.89,3,1,8,0.00
2013-10-4,77.4,69.0,64.2,67.3,64.4,62.2,96,86,69,30.01,29.89,2,0,5,0.02
2013-10-5,72.2,66.5,62.4,67.6,64.1,60.7,97,92,84,30.01,29.82,1,0,5,0.38
2013-10-6,69.8,63.7,52.4,66.6,61.2,51.3,96,92,80,29.83,29.63,3,1,9,0.34
2013-10-7,58.3,50.5,44.7,51.5,46.0,41.7,97,85,62,30.10,29.66,4,2,10,0.06
2013-10-8,66.4,52.0,40.8,47.7,44.3,39.7,97,78,48,30.28,30.09,2,0,6,0.00
2013-10-9,69.1,54.5,44.1,51.2,46.1,42.0,97,76,47,30.32,30.21,2,0,6,0.00
2013-10-10,69.2,54.0,42.1,54.3,44.8,41.0,97,75,40,30.24,30.13,2,0,7,0.00
2013-10-11,70.4,54.2,39.6,50.7,43.5,38.5,97,71,37,30.16,30.07,2,0,7,0.00
2013-10-12,74.9,60.0,46.5,60.7,52.4,44.9,96,78,52,30.10,30.01,2,0,6,0.00
2013-10-13,63.6,57.1,47.4,57.7,46.1,39.1,89,69,42,30.35,30.06,3,1,8,0.00
2013-10-14,60.1,48.4,38.1,44.1,40.3,36.8,97,76,44,30.43,30.29,2,0,6,0.00
2013-10-15,64.2,52.0,38.7,58.8,48.6,37.6,96,89,72,30.29,29.81,3,1,8,0.16
2013-10-16,60.5,53.2,50.0,59.0,49.3,45.2,95,87,73,29.88,29.78,5,2,10,0.00
2013-10-17,50.8,48.4,43.9,49.7,47.0,42.3,97,95,92,29.88,29.74,3,1,7,0.42
2013-10-18,60.4,48.4,40.6,45.0,41.3,37.7,97,79,44,29.90,29.82,5,2,11,0.00
2013-10-19,49.3,43.6,38.4,42.1,39.8,35.6,95,87,59,29.90,29.72,4,1,7,0.18
2013-10-20,54.5,46.2,38.6,43.6,39.4,36.3,94,78,53,29.91,29.79,4,1,9,0.02
2013-10-21,54.6,49.6,41.4,47.8,42.7,35.1,92,78,64,29.84,29.79,6,3,11,0.09
2013-10-22,46.1,39.7,31.7,35.8,30.1,26.8,84,69,52,29.91,29.83,5,2,11,0.01
2013-10-23,44.4,38.1,32.0,34.4,30.9,25.2,92,77,47,29.94,29.84,4,1,11,0.00
2013-10-24,43.7,35.4,29.8,32.7,30.0,27.5,95,81,61,30.18,29.93,4,2,11,0.00
2013-10-25,44.1,34.6,30.2,33.4,29.5,27.0,95,83,53,30.33,30.18,5,2,10,0.00
2013-10-26,50.2,41.5,36.3,39.5,32.3,27.0,93,70,54,30.09,29.74,6,3,15,0.14
2013-10-27,36.7,34.0,31.0,31.9,30.5,28.4,91,87,79,30.07,29.99,2,1,3,0.00
2013-10-28,46.4,39.4,33.2,36.6,32.4,29.2,87,76,65,30.42,30.03,2,1,9,0.00
2013-10-29,45.4,40.1,36.5,34.7,31.7,28.7,79,72,65,30.47,30.28,2,1,6,0.00
2013-10-30,62.3,45.7,32.5,48.4,39.1,31.2,97,79,56,30.28,29.98,1,0,5,0.00
2013-10-31,60.1,57.7,52.3,58.8,56.2,48.5,97,95,80,29.96,29.10,3,2,10,1.15
2013-11-1,60.2,48.1,44.0,58.3,43.4,39.7,94,84,73,29.65,29.06,10,5,23,0.06
2013-11-2,44.5,40.9,33.0,43.3,38.9,31.2,96,93,85,30.13,29.65,2,1,8,0.18
2013-11-3,42.7,35.7,28.1,35.2,31.2,26.9,97,84,68,30.47,30.12,3,1,7,0.01
2013-11-4,48.3,39.8,29.8,35.7,29.6,25.0,90,69,41,30.48,30.29,4,2,11,0.00
2013-11-5,54.5,48.6,45.0,44.7,40.8,33.9,79,74,69,30.34,30.29,3,2,6,0.00
2013-11-6,54.4,50.9,40.2,52.1,46.0,37.3,94,84,62,30.15,29.74,7,4,16,0.29
2013-11-7,42.0,37.9,33.5,37.2,30.7,26.3,91,76,55,30.14,29.98,6,4,12,0.01
2013-11-8,42.7,34.8,28.4,29.0,26.4,24.0,89,72,48,30.29,30.12,4,2,10,0.00
2013-11-9,52.0,45.0,35.1,40.8,34.5,28.3,77,67,57,30.19,29.78,9,5,20,0.00
2013-11-10,45.5,40.8,34.2,34.8,31.0,27.5,79,68,55,30.27,29.89,8,4,18,0.00
2013-11-11,41.1,34.6,26.0,36.9,29.7,21.0,94,83,71,30.33,30.04,5,2,11,0.14
2013-11-12,31.2,24.5,20.9,21.5,18.1,15.5,88,77,56,30.58,30.33,5,2,11,0.00
2013-11-13,38.5,28.4,18.2,24.0,17.7,12.8,89,66,40,30.57,30.15,7,4,16,0.00
2013-11-14,50.4,39.0,30.8,28.0,22.0,17.8,61,51,41,30.16,29.94,7,4,15,0.00
2013-11-15,50.9,43.9,36.8,29.0,25.9,22.7,64,50,38,30.03,29.97,4,3,11,0.00
2013-11-16,55.4,48.3,35.3,51.8,42.5,28.6,92,81,65,30.08,29.76,7,4,16,0.02
2013-11-17,61.9,58.5,54.5,58.2,55.4,51.2,93,90,85,29.78,29.21,8,5,20,0.20
2013-12-23,24.8,22.4,17.1,21.9,19.8,14.2,94,90,87,30.32,30.24,0,0,0,0.00
2013-12-24,17.0,9.6,4.6,14.7,6.8,2.1,92,88,81,30.57,30.32,0,0,0,0.00
2013-12-25,21.9,17.2,8.5,20.2,14.6,6.2,93,89,86,30.54,30.12,0,0,0,0.00
2013-12-26,24.2,22.4,20.9,22.7,19.8,16.3,94,89,81,30.28,30.04,0,0,0,0.00